Time;durP1;ratioP1;P1;durP2;ratioP2;P2;SDS_P1;SDS_P2;PMS_P1;PMS_P2;Temp;Humidity;BMP_temperature;BMP_pressure;BME280_temperature;BME280_humidity;BME280_pressure;Samples;Min_cycle;Max_cycle;Signal;HPM_P1;HPM_P2
2022/08/26 00:00:20;;;;;;;11.02;2.05;;;25.80;58.20;;;;;;5037765;28;20862;-76
2022/08/26 00:02:48;;;;;;;11.07;2.13;;;25.80;58.20;;;;;;5039516;28;20198;-76
2022/08/26 00:05:17;;;;;;;14.10;2.38;;;25.80;58.20;;;;;;5037935;28;20195;-76
2022/08/26 00:07:46;;;;;;;7.13;1.80;;;25.80;58.30;;;;;;5040487;28;20237;-76
2022/08/26 00:10:15;;;;;;;11.27;2.35;;;25.80;58.40;;;;;;5035089;28;20200;-76
2022/08/26 00:12:44;;;;;;;11.77;2.13;;;25.80;58.40;;;;;;5037612;28;20209;-76
2022/08/26 00:15:16;;;;;;;9.55;2.03;;;25.70;58.40;;;;;;5042279;28;20193;-77
2022/08/26 00:17:46;;;;;;;9.20;2.00;;;25.70;58.60;;;;;;5040071;28;20913;-76
2022/08/26 00:20:18;;;;;;;7.95;1.70;;;25.70;58.70;;;;;;5034851;28;20195;-76
2022/08/26 00:22:46;;;;;;;11.57;2.67;;;25.70;58.80;;;;;;5035955;28;20179;-76
2022/08/26 00:25:16;;;;;;;10.90;2.33;;;25.70;58.80;;;;;;5034485;28;20913;-77
2022/08/26 00:27:46;;;;;;;10.82;2.42;;;25.60;58.80;;;;;;5036496;28;20227;-76
2022/08/26 00:30:21;;;;;;;9.98;2.40;;;25.60;58.80;;;;;;5035333;28;20348;-76
2022/08/26 00:32:55;;;;;;;9.25;2.08;;;25.60;58.90;;;;;;5034928;28;20183;-77
2022/08/26 00:35:25;;;;;;;8.63;2.05;;;25.60;59.00;;;;;;5034926;28;20199;-78
2022/08/26 00:37:55;;;;;;;9.18;2.50;;;25.60;59.10;;;;;;5040363;28;20218;-76
2022/08/26 00:40:28;;;;;;;10.98;2.17;;;25.60;59.20;;;;;;5034289;28;21004;-78
2022/08/26 00:42:56;;;;;;;6.82;1.80;;;25.50;59.20;;;;;;5040636;28;20300;-76
2022/08/26 00:45:25;;;;;;;6.63;2.13;;;25.50;59.20;;;;;;5036191;28;20191;-77
2022/08/26 00:48:01;;;;;;;12.80;1.98;;;25.50;59.20;;;;;;5036563;28;20202;-76
2022/08/26 00:50:36;;;;;;;7.28;1.63;;;25.50;59.20;;;;;;5030358;28;20205;-75
2022/08/26 00:53:20;;;;;;;5.25;1.45;;;25.40;59.20;;;;;;5038572;28;20198;-77
2022/08/26 00:55:58;;;;;;;7.97;2.15;;;25.40;59.30;;;;;;5037046;28;20183;-77
2022/08/26 00:58:29;;;;;;;6.78;1.73;;;25.40;59.20;;;;;;5034663;28;20222;-76
2022/08/26 01:00:58;;;;;;;9.93;2.28;;;25.30;59.20;;;;;;5037898;28;20185;-77
2022/08/26 01:03:31;;;;;;;3.33;1.40;;;25.30;59.20;;;;;;5037944;28;20646;-76
2022/08/26 01:06:02;;;;;;;6.93;1.63;;;25.30;59.20;;;;;;5037792;28;20214;-76
2022/08/26 01:08:31;;;;;;;4.95;2.08;;;25.20;59.20;;;;;;5029847;28;20783;-76
2022/08/26 01:11:01;;;;;;;3.67;1.50;;;25.20;59.20;;;;;;5038996;28;20403;-76
2022/08/26 01:13:32;;;;;;;6.15;1.92;;;25.20;59.20;;;;;;5039606;28;20184;-76
2022/08/26 01:16:04;;;;;;;4.82;2.08;;;25.20;59.20;;;;;;5037458;28;20191;-77
2022/08/26 01:18:35;;;;;;;6.55;1.80;;;25.20;59.20;;;;;;5037714;28;20207;-77
2022/08/26 01:21:13;;;;;;;8.05;2.08;;;25.10;59.20;;;;;;5038751;28;20183;-76
2022/08/26 01:23:46;;;;;;;8.38;1.70;;;25.10;59.30;;;;;;5036814;28;20325;-76
2022/08/26 01:26:18;;;;;;;6.28;1.83;;;25.10;59.30;;;;;;5031534;28;20183;-77
2022/08/26 01:28:49;;;;;;;7.75;1.73;;;25.00;59.30;;;;;;5034388;28;20191;-76
2022/08/26 01:31:23;;;;;;;8.90;2.00;;;25.00;59.30;;;;;;5038491;28;20191;-77
2022/08/26 01:33:59;;;;;;;6.05;1.55;;;25.00;59.30;;;;;;5037050;28;20195;-76
2022/08/26 01:36:28;;;;;;;4.32;1.95;;;25.00;59.40;;;;;;5038000;28;20739;-76
2022/08/26 01:38:58;;;;;;;10.20;1.52;;;25.00;59.40;;;;;;5029631;28;20211;-77
2022/08/26 01:41:27;;;;;;;8.38;1.73;;;24.90;59.40;;;;;;5038078;28;20203;-77
2022/08/26 01:43:58;;;;;;;8.90;1.90;;;24.90;59.40;;;;;;5037605;28;20222;-76
2022/08/26 01:46:29;;;;;;;5.65;1.45;;;24.90;59.40;;;;;;5037555;28;20216;-76
2022/08/26 01:49:01;;;;;;;9.35;2.00;;;24.90;59.50;;;;;;5041822;28;20600;-76
2022/08/26 01:51:31;;;;;;;7.80;2.10;;;24.80;59.50;;;;;;5033159;28;20199;-76
2022/08/26 01:54:01;;;;;;;7.82;1.80;;;24.80;59.50;;;;;;5033965;28;20209;-75
2022/08/26 01:56:29;;;;;;;5.78;1.98;;;24.80;59.60;;;;;;5036383;28;20282;-76
2022/08/26 01:59:07;;;;;;;3.53;1.42;;;24.80;59.70;;;;;;5033561;28;20290;-76
2022/08/26 02:01:38;;;;;;;4.80;1.63;;;24.80;59.70;;;;;;5037285;28;20273;-76
2022/08/26 02:04:15;;;;;;;6.18;1.88;;;24.70;59.70;;;;;;5034824;28;20199;-76
2022/08/26 02:06:44;;;;;;;4.20;1.67;;;24.70;59.70;;;;;;5036590;28;20192;-76
2022/08/26 02:09:15;;;;;;;5.32;1.70;;;24.70;59.70;;;;;;5030347;28;20226;-76
2022/08/26 02:11:44;;;;;;;11.13;2.10;;;24.60;59.70;;;;;;5036560;28;20194;-75
2022/08/26 02:14:17;;;;;;;3.88;1.83;;;24.60;59.70;;;;;;5029035;28;20192;-77
2022/08/26 02:16:49;;;;;;;5.88;1.80;;;24.60;59.70;;;;;;5037623;28;20219;-76
2022/08/26 02:19:20;;;;;;;10.50;2.08;;;24.60;59.70;;;;;;5035492;28;20249;-77
2022/08/26 02:21:52;;;;;;;11.68;1.75;;;24.60;59.70;;;;;;5039372;28;20487;-78
2022/08/26 02:24:23;;;;;;;9.05;1.85;;;24.60;59.80;;;;;;5034056;28;21855;-77
2022/08/26 02:26:56;;;;;;;9.70;1.70;;;24.50;59.70;;;;;;5036761;28;20202;-78
2022/08/26 02:29:29;;;;;;;7.63;1.83;;;24.60;59.80;;;;;;5032001;28;20220;-78
2022/08/26 02:31:58;;;;;;;7.95;1.80;;;24.60;59.80;;;;;;5035667;28;20227;-77
2022/08/26 02:34:29;;;;;;;5.18;1.60;;;24.50;59.70;;;;;;5037059;28;20199;-77
2022/08/26 02:36:59;;;;;;;8.15;1.70;;;24.50;59.80;;;;;;5035289;28;20199;-77
2022/08/26 02:39:30;;;;;;;11.93;1.55;;;24.50;59.70;;;;;;5037517;28;20231;-77
2022/08/26 02:41:59;;;;;;;6.40;1.55;;;24.50;59.70;;;;;;5035121;28;20653;-77
2022/08/26 02:44:27;;;;;;;8.43;2.65;;;24.50;59.70;;;;;;5028644;28;20199;-76
2022/08/26 02:46:56;;;;;;;8.48;1.65;;;24.50;59.70;;;;;;5034467;28;20191;-76
2022/08/26 02:49:26;;;;;;;11.90;2.13;;;24.50;59.70;;;;;;5039536;28;20445;-77
2022/08/26 02:51:54;;;;;;;3.50;1.73;;;24.50;60.00;;;;;;5038896;28;20195;-77
2022/08/26 02:54:23;;;;;;;6.75;1.75;;;24.50;60.00;;;;;;5037952;28;20252;-77
2022/08/26 02:56:54;;;;;;;5.97;1.80;;;24.40;59.90;;;;;;5033039;28;20187;-77
2022/08/26 02:59:22;;;;;;;10.13;2.03;;;24.40;59.90;;;;;;5036526;28;20225;-77
2022/08/26 03:01:52;;;;;;;9.55;1.83;;;24.40;59.80;;;;;;5033257;28;20292;-77
2022/08/26 03:04:24;;;;;;;6.30;1.77;;;24.40;59.80;;;;;;5035722;28;20841;-78
2022/08/26 03:06:54;;;;;;;3.97;1.25;;;24.40;59.80;;;;;;5031845;28;20318;-77
2022/08/26 03:09:22;;;;;;;9.05;1.60;;;24.30;59.70;;;;;;5028205;28;20238;-77
2022/08/26 03:11:54;;;;;;;9.25;1.70;;;24.40;59.80;;;;;;5032726;28;20218;-77
2022/08/26 03:14:23;;;;;;;9.82;1.67;;;24.40;59.80;;;;;;5031131;28;20224;-78
2022/08/26 03:16:53;;;;;;;5.03;1.63;;;24.40;59.80;;;;;;5035951;28;20195;-77
2022/08/26 03:19:24;;;;;;;7.32;2.00;;;24.30;59.70;;;;;;5033137;28;20215;-79
2022/08/26 03:21:54;;;;;;;5.70;1.52;;;24.30;59.70;;;;;;5035752;28;20594;-76
2022/08/26 03:24:25;;;;;;;6.00;1.40;;;24.30;59.60;;;;;;5039574;28;20207;-78
2022/08/26 03:26:55;;;;;;;4.82;2.10;;;24.30;59.60;;;;;;5036460;28;20205;-77
2022/08/26 03:32:10;;;;;;;9.20;1.83;;;24.30;59.60;;;;;;5030409;28;20550;-79
2022/08/26 03:34:39;;;;;;;6.55;1.80;;;24.20;59.50;;;;;;5034714;28;20299;-76
2022/08/26 03:37:07;;;;;;;4.43;1.55;;;24.20;59.50;;;;;;5035549;28;20250;-77
2022/08/26 03:39:36;;;;;;;8.93;1.98;;;24.20;59.50;;;;;;5036990;28;20258;-77
2022/08/26 03:42:06;;;;;;;7.18;1.80;;;24.20;59.50;;;;;;5034755;28;20204;-77
2022/08/26 03:44:38;;;;;;;9.63;2.08;;;24.20;59.50;;;;;;5040308;28;20659;-77
2022/08/26 03:47:09;;;;;;;5.38;1.40;;;24.20;59.50;;;;;;5031309;28;20630;-79
2022/08/26 03:49:38;;;;;;;3.38;1.38;;;24.20;59.50;;;;;;5035243;28;20206;-78
2022/08/26 03:52:06;;;;;;;5.82;1.55;;;24.20;59.60;;;;;;5042307;28;20230;-77
2022/08/26 03:54:35;;;;;;;6.72;1.80;;;24.20;59.60;;;;;;5038378;28;20191;-77
2022/08/26 03:57:04;;;;;;;7.10;2.15;;;24.20;59.60;;;;;;5039706;28;20592;-78
2022/08/26 03:59:34;;;;;;;7.00;1.75;;;24.20;59.70;;;;;;5040585;28;20240;-77
2022/08/26 04:02:04;;;;;;;8.30;1.65;;;24.20;59.70;;;;;;5037604;28;20270;-78
2022/08/26 04:04:39;;;;;;;7.90;1.90;;;24.10;59.60;;;;;;5035370;28;20226;-79
2022/08/26 04:07:07;;;;;;;6.70;1.60;;;24.10;59.70;;;;;;5042664;28;20191;-80
2022/08/26 04:09:36;;;;;;;4.22;1.65;;;24.10;59.70;;;;;;5035935;28;20183;-77
2022/08/26 04:12:05;;;;;;;7.00;1.60;;;24.10;59.80;;;;;;5043196;28;20294;-78
2022/08/26 04:14:36;;;;;;;5.07;1.75;;;24.10;59.80;;;;;;5038756;28;20198;-78
2022/08/26 04:17:06;;;;;;;7.82;1.50;;;24.10;59.80;;;;;;5033275;28;20194;-79
2022/08/26 04:19:34;;;;;;;21.10;2.30;;;24.10;59.90;;;;;;5034578;28;20654;-77
2022/08/26 04:22:03;;;;;;;10.75;2.00;;;24.10;60.80;;;;;;5038002;28;20199;-78
2022/08/26 04:24:31;;;;;;;10.52;2.30;;;24.10;60.00;;;;;;5042000;28;20202;-78
2022/08/26 04:27:02;;;;;;;7.53;1.60;;;24.00;59.90;;;;;;5034008;28;20200;-78
2022/08/26 04:29:31;;;;;;;7.30;1.50;;;24.00;60.00;;;;;;5032550;28;20841;-79
2022/08/26 04:32:01;;;;;;;6.28;1.80;;;24.10;60.00;;;;;;5038666;28;20226;-77
2022/08/26 04:34:31;;;;;;;6.50;1.63;;;24.10;60.00;;;;;;5034869;28;20191;-78
2022/08/26 04:37:00;;;;;;;8.77;1.65;;;24.10;60.00;;;;;;5036456;28;20273;-78
2022/08/26 04:39:29;;;;;;;5.38;1.92;;;24.00;60.00;;;;;;5037688;28;20246;-78
2022/08/26 04:41:59;;;;;;;6.85;1.85;;;24.10;60.20;;;;;;5043205;28;20219;-78
2022/08/26 04:44:30;;;;;;;8.13;1.90;;;24.00;60.20;;;;;;5039468;28;20206;-78
2022/08/26 04:46:58;;;;;;;4.30;1.77;;;24.10;60.30;;;;;;5037771;28;20290;-78
2022/08/26 04:49:28;;;;;;;5.70;2.00;;;24.10;60.30;;;;;;5039671;28;20199;-79
2022/08/26 04:52:03;;;;;;;8.50;2.10;;;24.10;60.40;;;;;;5038429;28;20194;-78
2022/08/26 04:54:32;;;;;;;10.90;1.83;;;24.10;60.50;;;;;;5037003;28;20191;-78
2022/08/26 04:57:02;;;;;;;5.30;1.70;;;24.10;61.30;;;;;;5039013;28;20200;-78
2022/08/26 04:59:30;;;;;;;9.13;2.10;;;24.20;60.60;;;;;;5040257;28;20210;-76
2022/08/26 05:02:05;;;;;;;8.15;2.00;;;24.20;60.70;;;;;;5038554;28;20191;-76
2022/08/26 05:04:35;;;;;;;10.00;2.25;;;24.20;60.70;;;;;;5040194;28;20891;-76
2022/08/26 05:07:05;;;;;;;5.30;2.05;;;24.20;60.80;;;;;;5041868;28;20201;-76
2022/08/26 05:09:33;;;;;;;4.57;1.65;;;24.20;60.70;;;;;;5038102;28;20945;-76
2022/08/26 05:12:01;;;;;;;8.18;1.92;;;24.30;60.80;;;;;;5039494;28;20195;-76
2022/08/26 05:14:30;;;;;;;8.88;2.10;;;24.30;60.70;;;;;;5038674;28;20661;-77
2022/08/26 05:17:01;;;;;;;10.60;1.98;;;24.30;60.70;;;;;;5037307;28;20228;-76
2022/08/26 05:19:30;;;;;;;4.28;2.05;;;24.30;60.70;;;;;;5028538;28;21207;-76
2022/08/26 05:22:01;;;;;;;4.50;1.73;;;24.40;60.70;;;;;;5031577;28;20251;-76
2022/08/26 05:24:29;;;;;;;11.52;3.22;;;24.40;60.70;;;;;;5031400;28;21083;-76
2022/08/26 05:26:58;;;;;;;5.10;1.77;;;24.40;60.60;;;;;;5032946;28;21207;-76
2022/08/26 05:29:27;;;;;;;5.13;1.95;;;24.50;60.70;;;;;;5040223;28;20200;-76
2022/08/26 05:31:55;;;;;;;6.15;1.92;;;24.50;60.60;;;;;;5044603;28;20195;-77
2022/08/26 05:34:25;;;;;;;7.28;1.60;;;24.60;60.70;;;;;;5038558;28;20200;-77
2022/08/26 05:36:57;;;;;;;10.15;1.63;;;24.60;60.50;;;;;;5032337;28;20195;-77
2022/08/26 05:39:27;;;;;;;6.13;1.65;;;24.70;60.50;;;;;;5036439;28;20199;-77
2022/08/26 05:41:56;;;;;;;5.70;1.58;;;24.70;61.30;;;;;;5036178;28;20218;-77
2022/08/26 05:44:24;;;;;;;6.45;2.05;;;24.80;60.40;;;;;;5031685;28;20195;-78
2022/08/26 05:46:53;;;;;;;4.95;1.65;;;24.90;60.30;;;;;;5038616;28;20195;-77
2022/08/26 05:49:21;;;;;;;9.10;2.13;;;24.90;60.10;;;;;;5034581;28;20192;-77
2022/08/26 05:51:53;;;;;;;6.60;1.80;;;25.00;59.90;;;;;;5036554;28;20191;-78
2022/08/26 05:54:22;;;;;;;7.30;1.50;;;25.00;59.80;;;;;;5041812;28;20195;-76
2022/08/26 05:56:54;;;;;;;7.63;1.58;;;25.10;59.70;;;;;;5039881;28;20199;-78
2022/08/26 05:59:24;;;;;;;4.75;1.60;;;25.20;59.70;;;;;;5043293;28;20191;-77
2022/08/26 06:01:54;;;;;;;7.95;2.00;;;25.20;59.70;;;;;;5039273;28;20211;-77
2022/08/26 06:04:24;;;;;;;4.20;1.60;;;25.20;59.60;;;;;;5034042;28;20199;-77
2022/08/26 06:06:55;;;;;;;6.82;1.73;;;25.30;59.60;;;;;;5037107;28;20183;-76
2022/08/26 06:09:23;;;;;;;5.80;2.20;;;25.40;59.70;;;;;;5013150;28;20228;-77
2022/08/26 06:11:54;;;;;;;3.47;1.60;;;25.50;59.80;;;;;;5004531;28;20240;-78
2022/08/26 06:14:24;;;;;;;9.25;1.98;;;25.60;59.90;;;;;;5018524;28;20204;-77
2022/08/26 06:16:56;;;;;;;5.28;1.73;;;25.60;59.50;;;;;;5020230;28;20203;-77
2022/08/26 06:19:24;;;;;;;5.93;1.80;;;25.70;58.90;;;;;;5015594;28;20210;-77
2022/08/26 06:25:36;;;;;;;5.70;1.60;;;25.80;58.70;;;;;;5017796;28;20215;-78
2022/08/26 06:27:38;;;;;;;7.55;1.60;;;26.00;58.20;;;;;;5008397;28;20210;-78
2022/08/26 06:30:08;;;;;;;9.77;1.90;;;26.10;58.10;;;;;;5010567;28;20204;-76
2022/08/26 06:32:37;;;;;;;7.57;1.40;;;26.10;57.70;;;;;;5009883;28;20704;-77
2022/08/26 06:35:07;;;;;;;6.22;1.70;;;26.20;57.60;;;;;;5013232;28;20196;-76
2022/08/26 06:37:39;;;;;;;8.80;2.13;;;26.40;57.30;;;;;;5019642;28;20188;-76
2022/08/26 06:40:09;;;;;;;5.72;2.05;;;26.40;56.80;;;;;;5014085;28;20196;-75
2022/08/26 06:42:40;;;;;;;5.88;1.80;;;26.50;56.40;;;;;;5011157;28;20188;-76
2022/08/26 06:45:09;;;;;;;6.82;2.10;;;26.60;56.10;;;;;;5017692;28;20856;-75
2022/08/26 06:47:38;;;;;;;7.28;1.92;;;26.70;55.40;;;;;;5020093;28;20223;-79
2022/08/26 06:50:07;;;;;;;6.15;1.80;;;26.80;54.40;;;;;;5017065;28;20538;-78
2022/08/26 06:52:35;;;;;;;5.25;1.92;;;26.80;53.60;;;;;;5003286;28;20207;-76
2022/08/26 06:55:04;;;;;;;5.40;2.08;;;26.90;53.30;;;;;;5011314;28;20191;-77
2022/08/26 06:57:35;;;;;;;4.40;1.50;;;27.10;53.60;;;;;;5020405;28;20230;-78
2022/08/26 07:00:11;;;;;;;4.47;1.83;;;27.20;53.90;;;;;;5011178;28;20195;-78
2022/08/26 07:02:39;;;;;;;3.80;1.58;;;27.30;53.90;;;;;;5017439;28;20226;-77
2022/08/26 07:05:14;;;;;;;3.75;1.30;;;27.30;53.60;;;;;;5012911;28;20273;-77
2022/08/26 07:07:42;;;;;;;5.75;1.60;;;27.40;52.80;;;;;;5017189;28;20219;-75
2022/08/26 07:10:11;;;;;;;9.32;1.70;;;27.50;52.90;;;;;;5019682;28;20188;-77
2022/08/26 07:12:39;;;;;;;7.43;1.98;;;27.70;52.90;;;;;;5008731;28;20275;-77
2022/08/26 07:15:11;;;;;;;7.40;2.00;;;27.70;52.90;;;;;;5023402;28;20290;-76
2022/08/26 07:17:39;;;;;;;5.03;1.42;;;27.80;52.50;;;;;;5018017;28;20195;-75
2022/08/26 07:20:08;;;;;;;7.20;1.92;;;27.90;51.70;;;;;;5025114;28;20925;-78
2022/08/26 07:22:37;;;;;;;5.53;1.80;;;27.90;50.30;;;;;;5024763;28;20638;-76
2022/08/26 07:25:08;;;;;;;8.52;1.48;;;28.00;50.60;;;;;;5022407;28;20286;-75
2022/08/26 07:27:37;;;;;;;3.65;1.70;;;28.10;49.80;;;;;;5023226;28;20204;-76
2022/08/26 07:30:07;;;;;;;4.60;1.38;;;28.20;50.20;;;;;;5024819;28;20198;-77
2022/08/26 07:32:37;;;;;;;2.83;1.63;;;28.30;49.80;;;;;;5022161;28;20291;-76
2022/08/26 07:35:07;;;;;;;6.22;1.77;;;28.40;49.20;;;;;;5016541;28;20192;-77
2022/08/26 07:37:35;;;;;;;6.55;1.38;;;28.50;49.30;;;;;;5015043;28;20257;-73
2022/08/26 07:40:08;;;;;;;7.22;1.70;;;28.50;48.30;;;;;;5024224;28;20779;-76
2022/08/26 07:42:36;;;;;;;5.97;1.63;;;28.60;48.90;;;;;;5018222;28;20897;-76
2022/08/26 07:45:06;;;;;;;5.57;1.55;;;28.70;48.70;;;;;;5016716;28;20203;-74
2022/08/26 07:47:34;;;;;;;5.72;1.88;;;28.80;47.90;;;;;;5014527;28;20196;-74
2022/08/26 07:50:05;;;;;;;4.22;1.60;;;28.90;47.30;;;;;;5022457;28;20695;-77
2022/08/26 07:52:34;;;;;;;2.15;1.30;;;29.00;47.10;;;;;;5009924;28;20218;-75
2022/08/26 07:55:05;;;;;;;4.10;1.52;;;29.00;46.90;;;;;;5009302;28;20789;-75
2022/08/26 07:57:34;;;;;;;5.78;1.65;;;29.10;46.90;;;;;;5021947;28;20212;-77
2022/08/26 08:00:10;;;;;;;5.57;1.85;;;29.20;46.50;;;;;;5020585;28;20188;-76
2022/08/26 08:02:38;;;;;;;4.88;1.77;;;29.30;46.80;;;;;;5021801;28;20231;-75
2022/08/26 08:05:09;;;;;;;5.60;1.80;;;29.30;46.40;;;;;;5017844;28;20215;-77
2022/08/26 08:07:38;;;;;;;5.53;2.25;;;29.40;45.40;;;;;;5019533;28;20223;-78
2022/08/26 08:10:14;;;;;;;9.48;2.22;;;29.50;46.00;;;;;;5021224;28;20199;-79
2022/08/26 08:12:43;;;;;;;10.43;1.83;;;29.50;45.50;;;;;;5008417;28;20881;-75
2022/08/26 08:15:12;;;;;;;7.10;1.60;;;29.60;46.10;;;;;;5016418;28;20714;-77
2022/08/26 08:17:42;;;;;;;5.38;1.98;;;29.70;46.20;;;;;;5020795;28;20454;-75
2022/08/26 08:20:14;;;;;;;5.63;1.63;;;29.70;46.00;;;;;;5014156;28;20559;-75
2022/08/26 08:22:43;;;;;;;5.10;1.55;;;29.80;46.70;;;;;;5019676;28;20230;-76
2022/08/26 08:25:12;;;;;;;12.48;2.47;;;29.90;46.10;;;;;;5016490;28;20283;-76
2022/08/26 08:27:43;;;;;;;7.00;1.83;;;29.90;45.50;;;;;;5011833;28;20197;-75
2022/08/26 08:30:13;;;;;;;7.93;1.88;;;30.00;45.80;;;;;;5014363;28;20191;-76
2022/08/26 08:32:43;;;;;;;6.25;1.77;;;30.10;45.90;;;;;;5016156;28;20195;-75
2022/08/26 08:35:15;;;;;;;5.13;1.75;;;30.10;45.00;;;;;;5013693;28;20192;-75
2022/08/26 08:37:44;;;;;;;6.60;1.67;;;30.20;45.20;;;;;;5013055;28;20203;-75
2022/08/26 08:40:16;;;;;;;2.10;1.45;;;30.20;45.30;;;;;;5017942;28;20199;-75
2022/08/26 08:42:49;;;;;;;7.93;1.58;;;30.30;45.50;;;;;;5019515;28;20266;-76
2022/08/26 08:45:30;;;;;;;11.15;2.63;;;30.30;44.90;;;;;;5017690;28;20690;-78
2022/08/26 08:48:06;;;;;;;6.95;1.60;;;30.40;45.40;;;;;;5012459;28;20188;-76
2022/08/26 08:50:43;;;;;;;6.13;1.52;;;30.50;45.20;;;;;;5017852;28;20218;-77
2022/08/26 08:53:17;;;;;;;7.00;2.00;;;30.50;45.20;;;;;;5018695;28;20619;-81
2022/08/26 08:56:00;;;;;;;11.07;2.47;;;30.60;44.70;;;;;;5017242;28;20191;-81
2022/08/26 08:58:43;;;;;;;6.88;1.33;;;30.60;44.50;;;;;;5019547;28;20223;-77
2022/08/26 09:01:21;;;;;;;5.25;1.80;;;30.70;44.40;;;;;;5009629;28;20188;-79
2022/08/26 09:04:02;;;;;;;3.70;1.60;;;30.70;44.30;;;;;;5017724;28;20208;-76
2022/08/26 09:06:32;;;;;;;7.05;2.17;;;30.80;44.10;;;;;;5010821;28;20637;-80
2022/08/26 09:09:03;;;;;;;12.10;1.98;;;30.80;44.30;;;;;;5020190;28;20865;-75
2022/08/26 09:11:34;;;;;;;10.43;1.70;;;30.90;43.90;;;;;;5018096;28;20202;-78
2022/08/26 09:14:03;;;;;;;7.20;1.90;;;30.90;44.10;;;;;;5015744;28;20282;-78
2022/08/26 09:16:41;;;;;;;6.63;1.85;;;30.90;44.20;;;;;;5009912;28;20247;-77
2022/08/26 09:19:17;;;;;;;5.07;2.00;;;31.00;44.00;;;;;;5016452;28;20649;-75
2022/08/26 09:21:55;;;;;;;7.30;1.73;;;31.10;44.10;;;;;;5011689;28;20196;-76
2022/08/26 09:24:24;;;;;;;13.68;1.95;;;31.10;43.60;;;;;;5010599;28;20188;-77
2022/08/26 09:26:57;;;;;;;8.07;1.88;;;31.10;43.70;;;;;;5015033;28;20202;-75
2022/08/26 09:29:28;;;;;;;3.05;1.50;;;31.20;44.10;;;;;;5013086;28;20199;-78
2022/08/26 09:32:14;;;;;;;5.32;1.85;;;31.20;43.90;;;;;;5018675;28;20200;-79
2022/08/26 09:34:54;;;;;;;9.70;2.17;;;31.30;43.50;;;;;;5012957;28;20194;-80
2022/08/26 09:37:36;;;;;;;3.95;1.85;;;31.30;43.80;;;;;;5004490;28;20208;-76
2022/08/26 09:40:26;;;;;;;8.73;1.58;;;31.40;43.30;;;;;;5017752;28;20872;-76
2022/08/26 09:43:16;;;;;;;8.25;2.03;;;31.40;43.30;;;;;;5019178;28;20208;-80
2022/08/26 09:45:54;;;;;;;8.30;1.80;;;31.50;43.20;;;;;;5016560;28;20188;-78
2022/08/26 09:48:30;;;;;;;6.85;1.90;;;31.50;43.40;;;;;;5016749;28;20198;-78
2022/08/26 09:51:06;;;;;;;6.05;1.90;;;31.60;43.90;;;;;;5010837;28;20246;-78
2022/08/26 09:53:51;;;;;;;11.00;1.55;;;31.60;43.60;;;;;;5010415;28;20211;-75
2022/08/26 09:56:26;;;;;;;6.28;2.08;;;31.70;43.90;;;;;;5017542;28;20826;-76
2022/08/26 09:58:56;;;;;;;6.30;1.88;;;31.80;43.60;;;;;;5013941;28;20289;-75
2022/08/26 10:01:33;;;;;;;5.07;1.88;;;31.70;43.40;;;;;;5013839;28;20196;-74
2022/08/26 10:04:06;;;;;;;7.88;1.73;;;31.80;43.20;;;;;;5021731;28;20336;-74
2022/08/26 10:06:40;;;;;;;4.15;1.95;;;31.80;43.10;;;;;;5012694;28;20203;-77
2022/08/26 10:09:13;;;;;;;3.10;1.70;;;31.90;43.50;;;;;;5016746;28;20228;-77
2022/08/26 10:11:46;;;;;;;10.25;1.80;;;31.90;43.10;;;;;;5018334;28;20192;-76
2022/08/26 10:14:21;;;;;;;4.82;1.60;;;32.00;43.00;;;;;;5012738;28;20578;-77
2022/08/26 10:16:55;;;;;;;9.75;1.98;;;32.00;42.70;;;;;;5018029;28;20202;-77
2022/08/26 10:19:32;;;;;;;7.10;1.70;;;32.00;43.10;;;;;;5012983;28;20279;-76
2022/08/26 10:22:25;;;;;;;4.80;2.00;;;32.10;43.20;;;;;;5014485;28;20669;-76
2022/08/26 10:25:02;;;;;;;8.93;2.05;;;32.10;43.40;;;;;;5017132;28;20195;-78
2022/08/26 10:27:39;;;;;;;5.65;1.92;;;32.20;43.60;;;;;;5018982;28;20891;-79
2022/08/26 10:30:22;;;;;;;4.13;1.50;;;32.20;43.40;;;;;;5017231;28;20194;-76
2022/08/26 10:33:05;;;;;;;5.97;1.90;;;32.30;43.70;;;;;;5014049;28;20669;-77
2022/08/26 10:35:41;;;;;;;10.27;1.95;;;32.30;43.20;;;;;;5008904;28;20192;-81
2022/08/26 10:38:15;;;;;;;6.63;2.25;;;32.40;43.10;;;;;;5019148;28;20199;-77
2022/08/26 10:40:55;;;;;;;4.05;1.63;;;32.40;43.30;;;;;;5018262;28;20198;-77
2022/08/26 10:43:28;;;;;;;6.85;1.80;;;32.50;43.10;;;;;;5014581;28;20218;-75
2022/08/26 10:46:03;;;;;;;6.38;2.22;;;32.50;43.40;;;;;;5016129;28;20202;-77
2022/08/26 10:48:41;;;;;;;5.82;2.63;;;32.60;43.30;;;;;;5015007;28;20209;-79
2022/08/26 10:51:12;;;;;;;9.50;2.38;;;32.60;43.00;;;;;;5020610;28;20196;-76
2022/08/26 10:53:48;;;;;;;5.20;2.10;;;32.60;43.00;;;;;;5022009;28;20196;-79
2022/08/26 10:56:32;;;;;;;8.40;2.63;;;32.70;43.10;;;;;;5013610;28;20808;-80
2022/08/26 10:59:09;;;;;;;14.27;2.47;;;32.70;43.00;;;;;;5012591;28;20191;-80
2022/08/26 11:01:48;;;;;;;11.60;2.08;;;32.70;42.90;;;;;;5020942;28;20195;-76
2022/08/26 11:04:34;;;;;;;11.40;2.25;;;32.80;42.60;;;;;;5008547;28;21198;-76
2022/08/26 11:07:30;;;;;;;27.95;12.65;;;32.80;42.40;;;;;;5018864;28;20705;-75
2022/08/26 11:10:00;;;;;;;19.02;8.23;;;32.90;42.40;;;;;;5012299;28;20196;-76
2022/08/26 11:12:55;;;;;;;27.67;12.70;;;32.90;41.80;;;;;;5015257;28;21278;-75
2022/08/26 11:16:07;;;;;;;14.45;7.00;;;32.90;41.60;;;;;;5011126;28;20227;-77
2022/08/26 11:18:44;;;;;;;13.20;4.60;;;33.00;40.90;;;;;;5010375;28;20266;-75
2022/08/26 11:22:01;;;;;;;9.70;3.17;;;33.00;41.00;;;;;;5005767;28;20195;-77
2022/08/26 11:24:59;;;;;;;7.88;2.65;;;33.00;41.30;;;;;;5015403;28;20211;-77
2022/08/26 11:27:58;;;;;;;11.63;3.83;;;33.00;41.60;;;;;;5016294;28;20712;-76
2022/08/26 11:30:48;;;;;;;8.30;2.50;;;33.00;41.60;;;;;;5018247;28;20565;-78
2022/08/26 11:33:58;;;;;;;6.53;2.22;;;33.10;41.60;;;;;;5012342;28;20192;-77
2022/08/26 11:36:51;;;;;;;9.25;2.20;;;33.20;41.30;;;;;;5008692;28;21072;-77
2022/08/26 11:39:24;;;;;;;10.93;2.92;;;33.20;41.50;;;;;;5005555;28;20213;-75
2022/08/26 11:41:54;;;;;;;10.05;3.08;;;33.20;41.30;;;;;;5007009;28;20201;-79
2022/08/26 11:44:36;;;;;;;12.68;2.88;;;33.30;41.20;;;;;;5010482;28;20231;-78
2022/08/26 11:47:06;;;;;;;4.70;1.98;;;33.30;40.90;;;;;;5010117;28;20273;-77
2022/08/26 11:49:38;;;;;;;10.55;2.42;;;33.40;40.90;;;;;;5014799;28;20212;-78
2022/08/26 11:52:17;;;;;;;16.35;3.15;;;33.40;41.10;;;;;;5015894;28;20212;-77
2022/08/26 11:55:02;;;;;;;9.40;2.75;;;33.50;41.20;;;;;;5014937;28;20621;-77
2022/08/26 11:57:33;;;;;;;10.30;4.65;;;33.50;41.00;;;;;;5011771;28;20198;-77
2022/08/26 12:00:05;;;;;;;11.95;3.00;;;33.60;40.90;;;;;;5016348;28;20227;-80
2022/08/26 12:02:40;;;;;;;8.52;3.33;;;33.70;41.20;;;;;;5005422;28;20203;-79
2022/08/26 12:05:09;;;;;;;9.00;2.38;;;33.60;39.80;;;;;;5017714;28;20231;-79
2022/08/26 12:07:38;;;;;;;10.50;2.33;;;33.70;40.10;;;;;;5012735;28;20255;-78
2022/08/26 12:10:22;;;;;;;10.50;2.65;;;33.70;39.40;;;;;;5018030;28;20192;-76
2022/08/26 12:12:58;;;;;;;7.72;2.58;;;33.70;39.40;;;;;;5015478;28;20183;-77
2022/08/26 12:15:29;;;;;;;14.18;3.42;;;33.80;40.10;;;;;;5024521;28;20192;-76
2022/08/26 12:17:59;;;;;;;11.20;2.67;;;33.80;39.90;;;;;;5019306;28;20200;-75
2022/08/26 12:20:44;;;;;;;9.82;2.55;;;33.80;38.90;;;;;;5020074;28;20215;-76
2022/08/26 12:23:24;;;;;;;13.65;2.55;;;33.80;39.00;;;;;;5009251;28;20194;-79
2022/08/26 12:26:02;;;;;;;7.75;2.50;;;33.80;39.10;;;;;;5009750;28;20200;-78
2022/08/26 12:28:31;;;;;;;9.23;2.47;;;33.80;39.80;;;;;;5011926;28;20207;-76
2022/08/26 12:31:04;;;;;;;6.25;2.10;;;33.70;39.50;;;;;;5021318;28;20242;-76
2022/08/26 12:33:34;;;;;;;10.85;2.28;;;33.80;39.80;;;;;;5016175;28;20195;-79
2022/08/26 12:36:04;;;;;;;9.25;2.10;;;33.80;40.00;;;;;;5016197;28;20190;-78
2022/08/26 12:38:35;;;;;;;11.95;2.50;;;33.80;40.00;;;;;;5018688;28;20212;-79
2022/08/26 12:41:05;;;;;;;12.93;2.17;;;33.80;40.00;;;;;;5024409;28;20257;-77
2022/08/26 12:43:39;;;;;;;4.70;1.92;;;33.80;39.40;;;;;;5020542;28;20641;-78
2022/08/26 12:46:11;;;;;;;8.95;2.40;;;33.80;39.20;;;;;;5019137;28;20213;-79
2022/08/26 12:48:44;;;;;;;8.65;2.45;;;33.80;39.30;;;;;;5023175;28;20849;-78
2022/08/26 12:51:25;;;;;;;8.73;2.05;;;33.80;39.30;;;;;;5023319;28;20195;-78
2022/08/26 12:53:55;;;;;;;13.60;2.35;;;33.80;39.40;;;;;;5017871;28;20197;-77
2022/08/26 12:56:31;;;;;;;5.20;2.20;;;33.90;39.70;;;;;;5016358;28;20200;-78
2022/08/26 12:59:08;;;;;;;8.40;2.90;;;33.90;39.70;;;;;;5016195;28;20279;-77
2022/08/26 13:01:45;;;;;;;14.93;2.67;;;33.90;39.50;;;;;;5015274;28;20219;-81
2022/08/26 13:04:35;;;;;;;6.38;2.10;;;33.90;39.20;;;;;;5015343;28;20340;-80
2022/08/26 13:07:21;;;;;;;8.40;2.22;;;33.90;39.40;;;;;;5021661;28;20751;-82
2022/08/26 13:09:51;;;;;;;10.80;2.33;;;33.90;39.10;;;;;;5021722;28;20184;-79
2022/08/26 13:12:25;;;;;;;5.72;2.03;;;33.90;38.90;;;;;;5021235;28;20198;-82
2022/08/26 13:14:54;;;;;;;6.10;1.83;;;34.00;39.00;;;;;;5021832;28;20206;-78
2022/08/26 13:17:24;;;;;;;9.10;1.95;;;34.00;39.40;;;;;;5020306;28;20204;-80
2022/08/26 13:19:52;;;;;;;9.43;2.00;;;34.00;39.40;;;;;;5017809;28;20207;-77